sensor_id;sensor_type;location;lat;lon;timestamp;P1;durP1;ratioP1;P2;durP2;ratioP2
77449;SDS011;66536;53.150;18.172;2023-03-22T00:01:46;42.30;;;19.00;;
77449;SDS011;66536;53.150;18.172;2023-03-22T00:05:11;43.60;;;22.40;;
77449;SDS011;66536;53.150;18.172;2023-03-22T00:08:20;50.70;;;23.00;;
77449;SDS011;66536;53.150;18.172;2023-03-22T00:11:00;45.60;;;22.80;;
77449;SDS011;66536;53.150;18.172;2023-03-22T00:14:00;49.70;;;22.70;;
77449;SDS011;66536;53.150;18.172;2023-03-22T00:17:02;56.20;;;25.80;;
77449;SDS011;66536;53.150;18.172;2023-03-22T00:19:47;54.80;;;24.80;;
77449;SDS011;66536;53.150;18.172;2023-03-22T00:22:58;51.50;;;24.80;;
77449;SDS011;66536;53.150;18.172;2023-03-22T00:26:10;54.40;;;25.20;;
77449;SDS011;66536;53.150;18.172;2023-03-22T00:29:11;48.70;;;23.50;;
77449;SDS011;66536;53.150;18.172;2023-03-22T00:32:13;49.30;;;24.50;;
77449;SDS011;66536;53.150;18.172;2023-03-22T00:34:55;49.40;;;24.40;;
77449;SDS011;66536;53.150;18.172;2023-03-22T00:37:33;56.00;;;25.50;;
77449;SDS011;66536;53.150;18.172;2023-03-22T00:40:19;54.70;;;25.50;;
77449;SDS011;66536;53.150;18.172;2023-03-22T00:42:53;49.70;;;24.20;;
77449;SDS011;66536;53.150;18.172;2023-03-22T00:45:28;52.40;;;24.90;;
77449;SDS011;66536;53.150;18.172;2023-03-22T00:48:03;50.40;;;24.50;;
77449;SDS011;66536;53.150;18.172;2023-03-22T00:50:39;49.30;;;23.90;;
77449;SDS011;66536;53.150;18.172;2023-03-22T00:53:28;54.60;;;24.40;;
77449;SDS011;66536;53.150;18.172;2023-03-22T00:56:13;56.30;;;25.90;;
77449;SDS011;66536;53.150;18.172;2023-03-22T00:59:07;56.30;;;25.20;;
77449;SDS011;66536;53.150;18.172;2023-03-22T01:02:24;44.20;;;21.70;;
77449;SDS011;66536;53.150;18.172;2023-03-22T01:05:31;55.10;;;25.00;;
77449;SDS011;66536;53.150;18.172;2023-03-22T01:09:08;62.00;;;24.90;;
77449;SDS011;66536;53.150;18.172;2023-03-22T01:12:08;58.60;;;25.90;;
77449;SDS011;66536;53.150;18.172;2023-03-22T01:15:04;49.80;;;23.40;;
77449;SDS011;66536;53.150;18.172;2023-03-22T01:18:11;51.10;;;24.00;;
77449;SDS011;66536;53.150;18.172;2023-03-22T01:20:59;47.00;;;24.40;;
77449;SDS011;66536;53.150;18.172;2023-03-22T01:23:33;52.40;;;24.40;;
77449;SDS011;66536;53.150;18.172;2023-03-22T01:27:07;48.10;;;24.00;;
77449;SDS011;66536;53.150;18.172;2023-03-22T01:31:04;59.50;;;25.80;;
77449;SDS011;66536;53.150;18.172;2023-03-22T01:34:19;59.20;;;25.80;;
77449;SDS011;66536;53.150;18.172;2023-03-22T01:41:30;51.40;;;23.70;;
77449;SDS011;66536;53.150;18.172;2023-03-22T01:52:32;56.30;;;24.40;;
77449;SDS011;66536;53.150;18.172;2023-03-22T01:56:11;52.60;;;24.30;;
77449;SDS011;66536;53.150;18.172;2023-03-22T01:59:57;47.10;;;23.90;;
77449;SDS011;66536;53.150;18.172;2023-03-22T02:19:25;49.10;;;25.60;;
77449;SDS011;66536;53.150;18.172;2023-03-22T02:23:08;49.10;;;25.20;;
77449;SDS011;66536;53.150;18.172;2023-03-22T02:26:36;51.30;;;23.80;;
77449;SDS011;66536;53.150;18.172;2023-03-22T02:30:19;46.70;;;23.30;;
77449;SDS011;66536;53.150;18.172;2023-03-22T02:34:39;53.90;;;24.20;;
77449;SDS011;66536;53.150;18.172;2023-03-22T02:39:04;52.30;;;24.20;;
77449;SDS011;66536;53.150;18.172;2023-03-22T02:42:38;49.70;;;23.20;;
77449;SDS011;66536;53.150;18.172;2023-03-22T02:46:15;51.30;;;24.60;;
77449;SDS011;66536;53.150;18.172;2023-03-22T02:49:41;54.60;;;24.50;;
77449;SDS011;66536;53.150;18.172;2023-03-22T02:56:23;51.30;;;23.90;;
77449;SDS011;66536;53.150;18.172;2023-03-22T02:59:51;51.00;;;24.70;;
77449;SDS011;66536;53.150;18.172;2023-03-22T03:02:59;57.40;;;26.20;;
77449;SDS011;66536;53.150;18.172;2023-03-22T03:06:31;55.40;;;25.70;;
77449;SDS011;66536;53.150;18.172;2023-03-22T03:09:34;54.70;;;23.80;;
77449;SDS011;66536;53.150;18.172;2023-03-22T03:12:16;55.60;;;26.00;;
77449;SDS011;66536;53.150;18.172;2023-03-22T03:15:20;54.60;;;24.60;;
77449;SDS011;66536;53.150;18.172;2023-03-22T03:18:42;53.50;;;24.90;;
77449;SDS011;66536;53.150;18.172;2023-03-22T03:22:07;56.30;;;27.00;;
77449;SDS011;66536;53.150;18.172;2023-03-22T03:25:33;57.50;;;27.10;;
77449;SDS011;66536;53.150;18.172;2023-03-22T03:28:56;58.30;;;26.70;;
77449;SDS011;66536;53.150;18.172;2023-03-22T03:32:36;60.40;;;26.40;;
77449;SDS011;66536;53.150;18.172;2023-03-22T03:40:03;58.30;;;25.50;;
77449;SDS011;66536;53.150;18.172;2023-03-22T03:44:29;54.90;;;27.50;;
77449;SDS011;66536;53.150;18.172;2023-03-22T03:47:18;53.70;;;25.90;;
77449;SDS011;66536;53.150;18.172;2023-03-22T04:03:10;55.20;;;27.80;;
77449;SDS011;66536;53.150;18.172;2023-03-22T04:05:50;58.60;;;28.60;;
77449;SDS011;66536;53.150;18.172;2023-03-22T04:08:20;54.30;;;27.00;;
77449;SDS011;66536;53.150;18.172;2023-03-22T04:15:31;62.30;;;27.90;;
77449;SDS011;66536;53.150;18.172;2023-03-22T04:37:01;55.30;;;28.00;;
77449;SDS011;66536;53.150;18.172;2023-03-22T04:39:31;60.70;;;30.60;;
77449;SDS011;66536;53.150;18.172;2023-03-22T04:42:08;65.20;;;30.20;;
77449;SDS011;66536;53.150;18.172;2023-03-22T04:44:35;56.80;;;29.40;;
77449;SDS011;66536;53.150;18.172;2023-03-22T04:47:04;59.90;;;29.00;;
77449;SDS011;66536;53.150;18.172;2023-03-22T04:49:32;64.50;;;30.30;;
77449;SDS011;66536;53.150;18.172;2023-03-22T04:52:02;63.10;;;30.00;;
77449;SDS011;66536;53.150;18.172;2023-03-22T04:54:40;61.90;;;30.20;;
77449;SDS011;66536;53.150;18.172;2023-03-22T04:57:11;63.60;;;29.90;;
77449;SDS011;66536;53.150;18.172;2023-03-22T04:59:47;65.40;;;31.40;;
77449;SDS011;66536;53.150;18.172;2023-03-22T05:02:14;65.00;;;31.10;;
77449;SDS011;66536;53.150;18.172;2023-03-22T05:04:42;61.70;;;30.80;;
77449;SDS011;66536;53.150;18.172;2023-03-22T05:07:19;59.20;;;29.80;;
77449;SDS011;66536;53.150;18.172;2023-03-22T05:09:51;66.60;;;31.60;;
77449;SDS011;66536;53.150;18.172;2023-03-22T05:12:20;68.50;;;33.00;;
77449;SDS011;66536;53.150;18.172;2023-03-22T05:14:57;63.20;;;32.00;;
77449;SDS011;66536;53.150;18.172;2023-03-22T05:17:31;67.20;;;32.70;;
77449;SDS011;66536;53.150;18.172;2023-03-22T05:20:00;68.20;;;33.10;;
77449;SDS011;66536;53.150;18.172;2023-03-22T05:22:37;68.20;;;34.00;;
77449;SDS011;66536;53.150;18.172;2023-03-22T05:25:06;69.00;;;33.20;;
77449;SDS011;66536;53.150;18.172;2023-03-22T05:27:36;64.80;;;31.80;;
77449;SDS011;66536;53.150;18.172;2023-03-22T05:30:16;66.40;;;31.70;;
77449;SDS011;66536;53.150;18.172;2023-03-22T05:32:48;68.20;;;32.40;;
77449;SDS011;66536;53.150;18.172;2023-03-22T05:35:17;68.60;;;34.80;;
77449;SDS011;66536;53.150;18.172;2023-03-22T05:37:48;68.10;;;34.60;;
77449;SDS011;66536;53.150;18.172;2023-03-22T05:40:15;74.50;;;36.90;;
77449;SDS011;66536;53.150;18.172;2023-03-22T05:42:43;66.10;;;31.70;;
77449;SDS011;66536;53.150;18.172;2023-03-22T05:45:15;60.20;;;30.70;;
77449;SDS011;66536;53.150;18.172;2023-03-22T05:48:02;63.90;;;31.40;;
77449;SDS011;66536;53.150;18.172;2023-03-22T05:50:35;59.30;;;30.10;;
77449;SDS011;66536;53.150;18.172;2023-03-22T05:53:08;59.60;;;30.10;;
77449;SDS011;66536;53.150;18.172;2023-03-22T05:56:00;68.20;;;34.00;;
77449;SDS011;66536;53.150;18.172;2023-03-22T05:58:31;67.60;;;32.80;;
77449;SDS011;66536;53.150;18.172;2023-03-22T06:01:07;66.00;;;32.90;;
77449;SDS011;66536;53.150;18.172;2023-03-22T06:03:47;58.20;;;29.80;;
77449;SDS011;66536;53.150;18.172;2023-03-22T06:06:27;65.80;;;32.30;;
77449;SDS011;66536;53.150;18.172;2023-03-22T06:09:12;62.10;;;31.30;;
77449;SDS011;66536;53.150;18.172;2023-03-22T06:11:40;68.10;;;33.60;;
77449;SDS011;66536;53.150;18.172;2023-03-22T06:14:08;61.80;;;32.80;;
77449;SDS011;66536;53.150;18.172;2023-03-22T06:16:50;67.50;;;33.70;;
77449;SDS011;66536;53.150;18.172;2023-03-22T06:19:25;70.10;;;35.00;;
77449;SDS011;66536;53.150;18.172;2023-03-22T06:21:53;67.30;;;33.90;;
77449;SDS011;66536;53.150;18.172;2023-03-22T06:24:33;105.00;;;54.60;;
77449;SDS011;66536;53.150;18.172;2023-03-22T06:27:05;85.40;;;43.60;;
77449;SDS011;66536;53.150;18.172;2023-03-22T06:29:36;62.90;;;32.40;;
77449;SDS011;66536;53.150;18.172;2023-03-22T06:32:12;63.90;;;32.30;;
77449;SDS011;66536;53.150;18.172;2023-03-22T06:34:39;62.00;;;31.80;;
77449;SDS011;66536;53.150;18.172;2023-03-22T06:37:11;63.90;;;30.00;;
77449;SDS011;66536;53.150;18.172;2023-03-22T06:39:45;57.80;;;29.80;;
77449;SDS011;66536;53.150;18.172;2023-03-22T06:42:18;59.60;;;29.70;;
77449;SDS011;66536;53.150;18.172;2023-03-22T06:44:50;59.80;;;30.30;;
77449;SDS011;66536;53.150;18.172;2023-03-22T06:47:25;57.60;;;29.90;;
77449;SDS011;66536;53.150;18.172;2023-03-22T06:50:03;58.30;;;29.30;;
77449;SDS011;66536;53.150;18.172;2023-03-22T06:52:44;56.10;;;28.10;;
77449;SDS011;66536;53.150;18.172;2023-03-22T06:55:13;60.80;;;29.40;;
77449;SDS011;66536;53.150;18.172;2023-03-22T06:58:15;58.80;;;29.30;;
77449;SDS011;66536;53.150;18.172;2023-03-22T07:00:46;56.70;;;29.60;;
77449;SDS011;66536;53.150;18.172;2023-03-22T07:03:14;55.80;;;29.10;;
77449;SDS011;66536;53.150;18.172;2023-03-22T07:06:02;58.70;;;28.40;;
77449;SDS011;66536;53.150;18.172;2023-03-22T07:08:45;57.30;;;29.60;;
77449;SDS011;66536;53.150;18.172;2023-03-22T07:11:16;52.70;;;26.40;;
77449;SDS011;66536;53.150;18.172;2023-03-22T07:13:49;61.30;;;28.80;;
77449;SDS011;66536;53.150;18.172;2023-03-22T07:16:20;62.10;;;30.20;;
77449;SDS011;66536;53.150;18.172;2023-03-22T07:19:01;71.20;;;34.30;;
77449;SDS011;66536;53.150;18.172;2023-03-22T07:21:30;66.80;;;34.60;;
77449;SDS011;66536;53.150;18.172;2023-03-22T07:24:41;49.10;;;25.50;;
77449;SDS011;66536;53.150;18.172;2023-03-22T07:27:08;51.70;;;27.80;;
77449;SDS011;66536;53.150;18.172;2023-03-22T07:29:35;59.40;;;30.60;;
77449;SDS011;66536;53.150;18.172;2023-03-22T07:32:02;67.70;;;30.80;;
77449;SDS011;66536;53.150;18.172;2023-03-22T07:34:40;65.90;;;30.30;;
77449;SDS011;66536;53.150;18.172;2023-03-22T07:37:16;61.10;;;27.50;;
77449;SDS011;66536;53.150;18.172;2023-03-22T07:39:46;52.20;;;27.00;;
77449;SDS011;66536;53.150;18.172;2023-03-22T07:42:13;47.50;;;24.30;;
77449;SDS011;66536;53.150;18.172;2023-03-22T07:45:57;48.40;;;24.00;;
77449;SDS011;66536;53.150;18.172;2023-03-22T07:48:47;43.60;;;20.90;;
77449;SDS011;66536;53.150;18.172;2023-03-22T07:52:01;45.80;;;23.40;;
77449;SDS011;66536;53.150;18.172;2023-03-22T07:54:36;45.70;;;22.90;;
77449;SDS011;66536;53.150;18.172;2023-03-22T07:57:21;36.60;;;18.90;;
77449;SDS011;66536;53.150;18.172;2023-03-22T08:00:07;45.30;;;23.70;;
77449;SDS011;66536;53.150;18.172;2023-03-22T08:02:43;37.50;;;19.80;;
77449;SDS011;66536;53.150;18.172;2023-03-22T08:05:15;33.30;;;16.30;;
77449;SDS011;66536;53.150;18.172;2023-03-22T08:07:45;30.70;;;15.50;;
77449;SDS011;66536;53.150;18.172;2023-03-22T08:10:28;32.20;;;16.10;;
77449;SDS011;66536;53.150;18.172;2023-03-22T08:12:57;31.70;;;16.10;;
77449;SDS011;66536;53.150;18.172;2023-03-22T08:15:28;42.40;;;21.70;;
77449;SDS011;66536;53.150;18.172;2023-03-22T08:17:55;41.50;;;20.80;;
77449;SDS011;66536;53.150;18.172;2023-03-22T08:20:29;31.70;;;15.50;;
77449;SDS011;66536;53.150;18.172;2023-03-22T08:23:00;43.20;;;20.30;;
77449;SDS011;66536;53.150;18.172;2023-03-22T08:25:39;33.40;;;17.00;;
77449;SDS011;66536;53.150;18.172;2023-03-22T08:28:13;38.10;;;19.90;;
77449;SDS011;66536;53.150;18.172;2023-03-22T08:30:43;34.30;;;18.10;;
77449;SDS011;66536;53.150;18.172;2023-03-22T08:33:11;39.40;;;19.00;;
77449;SDS011;66536;53.150;18.172;2023-03-22T08:35:50;41.70;;;20.10;;
77449;SDS011;66536;53.150;18.172;2023-03-22T08:38:17;41.10;;;19.80;;
77449;SDS011;66536;53.150;18.172;2023-03-22T08:41:05;42.90;;;21.40;;
77449;SDS011;66536;53.150;18.172;2023-03-22T08:43:32;40.80;;;21.00;;
77449;SDS011;66536;53.150;18.172;2023-03-22T08:45:58;40.90;;;19.60;;
77449;SDS011;66536;53.150;18.172;2023-03-22T08:48:25;42.70;;;19.70;;
77449;SDS011;66536;53.150;18.172;2023-03-22T08:51:09;41.80;;;19.80;;
77449;SDS011;66536;53.150;18.172;2023-03-22T08:53:49;39.10;;;18.90;;
77449;SDS011;66536;53.150;18.172;2023-03-22T08:57:03;38.20;;;19.40;;
77449;SDS011;66536;53.150;18.172;2023-03-22T08:59:43;33.40;;;17.10;;
77449;SDS011;66536;53.150;18.172;2023-03-22T09:02:21;36.00;;;18.70;;
77449;SDS011;66536;53.150;18.172;2023-03-22T09:04:47;36.00;;;17.80;;
77449;SDS011;66536;53.150;18.172;2023-03-22T09:07:14;31.60;;;17.00;;
77449;SDS011;66536;53.150;18.172;2023-03-22T09:09:50;37.50;;;18.70;;
77449;SDS011;66536;53.150;18.172;2023-03-22T09:12:17;36.90;;;19.90;;
77449;SDS011;66536;53.150;18.172;2023-03-22T09:14:46;33.80;;;18.70;;
77449;SDS011;66536;53.150;18.172;2023-03-22T09:17:15;37.50;;;20.10;;
77449;SDS011;66536;53.150;18.172;2023-03-22T09:19:47;36.90;;;19.10;;
77449;SDS011;66536;53.150;18.172;2023-03-22T09:22:14;38.00;;;20.60;;
77449;SDS011;66536;53.150;18.172;2023-03-22T09:25:00;42.10;;;23.30;;
77449;SDS011;66536;53.150;18.172;2023-03-22T09:27:33;32.00;;;17.60;;
77449;SDS011;66536;53.150;18.172;2023-03-22T09:30:00;32.80;;;18.60;;
77449;SDS011;66536;53.150;18.172;2023-03-22T09:32:27;33.50;;;17.90;;
77449;SDS011;66536;53.150;18.172;2023-03-22T09:34:58;32.00;;;18.70;;
77449;SDS011;66536;53.150;18.172;2023-03-22T09:37:27;29.30;;;17.90;;
77449;SDS011;66536;53.150;18.172;2023-03-22T09:39:56;36.40;;;21.20;;
77449;SDS011;66536;53.150;18.172;2023-03-22T09:42:34;33.80;;;19.10;;
77449;SDS011;66536;53.150;18.172;2023-03-22T09:45:15;28.90;;;14.80;;
77449;SDS011;66536;53.150;18.172;2023-03-22T09:47:47;31.80;;;17.30;;
77449;SDS011;66536;53.150;18.172;2023-03-22T09:50:18;25.40;;;14.70;;
77449;SDS011;66536;53.150;18.172;2023-03-22T09:52:51;25.60;;;15.40;;
77449;SDS011;66536;53.150;18.172;2023-03-22T09:55:31;29.90;;;15.40;;
77449;SDS011;66536;53.150;18.172;2023-03-22T10:00:50;27.10;;;14.80;;
77449;SDS011;66536;53.150;18.172;2023-03-22T10:03:32;27.10;;;15.30;;
77449;SDS011;66536;53.150;18.172;2023-03-22T10:06:22;24.10;;;14.20;;
77449;SDS011;66536;53.150;18.172;2023-03-22T10:08:58;26.90;;;15.60;;
77449;SDS011;66536;53.150;18.172;2023-03-22T10:11:43;23.70;;;13.90;;
77449;SDS011;66536;53.150;18.172;2023-03-22T10:17:01;29.00;;;14.80;;
77449;SDS011;66536;53.150;18.172;2023-03-22T10:19:58;31.30;;;15.90;;
77449;SDS011;66536;53.150;18.172;2023-03-22T10:22:49;30.40;;;15.60;;
77449;SDS011;66536;53.150;18.172;2023-03-22T10:25:32;28.50;;;14.60;;
77449;SDS011;66536;53.150;18.172;2023-03-22T10:28:38;25.10;;;13.80;;
77449;SDS011;66536;53.150;18.172;2023-03-22T10:31:23;21.80;;;11.80;;
77449;SDS011;66536;53.150;18.172;2023-03-22T10:34:19;22.60;;;12.20;;
77449;SDS011;66536;53.150;18.172;2023-03-22T10:37:17;18.80;;;11.90;;
77449;SDS011;66536;53.150;18.172;2023-03-22T10:39:49;19.20;;;10.60;;
77449;SDS011;66536;53.150;18.172;2023-03-22T10:42:26;22.20;;;12.10;;
77449;SDS011;66536;53.150;18.172;2023-03-22T10:44:56;23.30;;;12.00;;
77449;SDS011;66536;53.150;18.172;2023-03-22T10:47:30;21.20;;;11.60;;
77449;SDS011;66536;53.150;18.172;2023-03-22T10:50:02;19.50;;;11.30;;
77449;SDS011;66536;53.150;18.172;2023-03-22T10:52:35;20.10;;;11.90;;
77449;SDS011;66536;53.150;18.172;2023-03-22T10:55:11;20.70;;;11.70;;
77449;SDS011;66536;53.150;18.172;2023-03-22T10:57:48;22.40;;;11.90;;
77449;SDS011;66536;53.150;18.172;2023-03-22T11:00:22;23.00;;;12.50;;
77449;SDS011;66536;53.150;18.172;2023-03-22T11:02:53;21.00;;;12.40;;
77449;SDS011;66536;53.150;18.172;2023-03-22T11:05:26;21.80;;;12.10;;
77449;SDS011;66536;53.150;18.172;2023-03-22T11:07:59;19.40;;;12.40;;
77449;SDS011;66536;53.150;18.172;2023-03-22T11:10:30;21.50;;;12.40;;
77449;SDS011;66536;53.150;18.172;2023-03-22T11:13:11;18.50;;;12.20;;
77449;SDS011;66536;53.150;18.172;2023-03-22T11:16:04;28.60;;;15.90;;
77449;SDS011;66536;53.150;18.172;2023-03-22T11:18:35;24.30;;;12.90;;
77449;SDS011;66536;53.150;18.172;2023-03-22T11:21:04;22.00;;;12.90;;
77449;SDS011;66536;53.150;18.172;2023-03-22T11:23:36;22.50;;;12.20;;
77449;SDS011;66536;53.150;18.172;2023-03-22T11:26:12;22.70;;;12.20;;
77449;SDS011;66536;53.150;18.172;2023-03-22T11:28:49;19.00;;;12.90;;
77449;SDS011;66536;53.150;18.172;2023-03-22T11:31:19;20.30;;;13.60;;
77449;SDS011;66536;53.150;18.172;2023-03-22T11:33:58;20.80;;;12.20;;
77449;SDS011;66536;53.150;18.172;2023-03-22T11:36:29;22.60;;;14.10;;
77449;SDS011;66536;53.150;18.172;2023-03-22T11:38:57;21.60;;;13.70;;
77449;SDS011;66536;53.150;18.172;2023-03-22T11:41:47;22.90;;;13.80;;
77449;SDS011;66536;53.150;18.172;2023-03-22T11:44:15;21.90;;;14.90;;
77449;SDS011;66536;53.150;18.172;2023-03-22T11:46:47;16.90;;;12.70;;
77449;SDS011;66536;53.150;18.172;2023-03-22T11:49:17;21.40;;;14.40;;
77449;SDS011;66536;53.150;18.172;2023-03-22T11:51:50;18.80;;;13.50;;
77449;SDS011;66536;53.150;18.172;2023-03-22T11:54:41;38.80;;;27.10;;
77449;SDS011;66536;53.150;18.172;2023-03-22T11:57:14;38.60;;;27.00;;
77449;SDS011;66536;53.150;18.172;2023-03-22T12:03:13;21.20;;;13.80;;
77449;SDS011;66536;53.150;18.172;2023-03-22T12:05:46;21.30;;;14.00;;
77449;SDS011;66536;53.150;18.172;2023-03-22T12:08:21;21.80;;;14.30;;
77449;SDS011;66536;53.150;18.172;2023-03-22T12:11:05;24.30;;;15.80;;
77449;SDS011;66536;53.150;18.172;2023-03-22T12:16:28;24.40;;;13.70;;
77449;SDS011;66536;53.150;18.172;2023-03-22T12:22:08;29.20;;;16.00;;
77449;SDS011;66536;53.150;18.172;2023-03-22T12:24:40;17.20;;;12.20;;
77449;SDS011;66536;53.150;18.172;2023-03-22T12:27:14;20.10;;;13.90;;
77449;SDS011;66536;53.150;18.172;2023-03-22T12:30:18;35.90;;;19.70;;
77449;SDS011;66536;53.150;18.172;2023-03-22T12:32:40;23.50;;;14.30;;
77449;SDS011;66536;53.150;18.172;2023-03-22T12:35:13;17.90;;;12.70;;
77449;SDS011;66536;53.150;18.172;2023-03-22T12:37:54;13.40;;;9.70;;
77449;SDS011;66536;53.150;18.172;2023-03-22T12:40:30;22.70;;;13.90;;
77449;SDS011;66536;53.150;18.172;2023-03-22T12:43:01;33.20;;;17.60;;
77449;SDS011;66536;53.150;18.172;2023-03-22T12:45:42;18.70;;;12.60;;
77449;SDS011;66536;53.150;18.172;2023-03-22T12:48:18;17.20;;;10.20;;
77449;SDS011;66536;53.150;18.172;2023-03-22T12:50:57;16.00;;;11.90;;
77449;SDS011;66536;53.150;18.172;2023-03-22T12:53:50;14.60;;;11.20;;
77449;SDS011;66536;53.150;18.172;2023-03-22T12:56:20;12.00;;;9.10;;
77449;SDS011;66536;53.150;18.172;2023-03-22T12:58:53;21.00;;;14.00;;
77449;SDS011;66536;53.150;18.172;2023-03-22T13:01:33;14.30;;;10.30;;
77449;SDS011;66536;53.150;18.172;2023-03-22T13:07:06;13.60;;;9.90;;
77449;SDS011;66536;53.150;18.172;2023-03-22T13:10:38;12.10;;;9.60;;
77449;SDS011;66536;53.150;18.172;2023-03-22T13:16:15;11.80;;;8.30;;
77449;SDS011;66536;53.150;18.172;2023-03-22T13:19:15;14.70;;;10.50;;
77449;SDS011;66536;53.150;18.172;2023-03-22T13:33:34;25.10;;;15.40;;
77449;SDS011;66536;53.150;18.172;2023-03-22T13:36:06;21.40;;;14.40;;
77449;SDS011;66536;53.150;18.172;2023-03-22T13:38:58;13.80;;;10.40;;
77449;SDS011;66536;53.150;18.172;2023-03-22T13:41:33;14.20;;;10.20;;
77449;SDS011;66536;53.150;18.172;2023-03-22T13:44:35;17.90;;;10.80;;
77449;SDS011;66536;53.150;18.172;2023-03-22T13:47:02;24.70;;;12.30;;
77449;SDS011;66536;53.150;18.172;2023-03-22T13:54:59;24.50;;;15.50;;
77449;SDS011;66536;53.150;18.172;2023-03-22T14:00:31;16.30;;;13.20;;
77449;SDS011;66536;53.150;18.172;2023-03-22T14:03:05;20.30;;;13.70;;
77449;SDS011;66536;53.150;18.172;2023-03-22T14:05:51;14.60;;;12.00;;
77449;SDS011;66536;53.150;18.172;2023-03-22T14:08:41;14.80;;;11.10;;
77449;SDS011;66536;53.150;18.172;2023-03-22T14:11:27;18.20;;;11.20;;
77449;SDS011;66536;53.150;18.172;2023-03-22T14:14:14;15.90;;;10.10;;
77449;SDS011;66536;53.150;18.172;2023-03-22T14:17:28;35.80;;;21.40;;
77449;SDS011;66536;53.150;18.172;2023-03-22T14:20:11;20.70;;;11.30;;
77449;SDS011;66536;53.150;18.172;2023-03-22T14:23:05;21.80;;;15.60;;
77449;SDS011;66536;53.150;18.172;2023-03-22T14:25:38;17.50;;;12.90;;
77449;SDS011;66536;53.150;18.172;2023-03-22T14:28:07;17.20;;;11.50;;
77449;SDS011;66536;53.150;18.172;2023-03-22T14:30:35;14.80;;;10.50;;
77449;SDS011;66536;53.150;18.172;2023-03-22T14:33:11;17.80;;;12.20;;
77449;SDS011;66536;53.150;18.172;2023-03-22T14:35:48;21.90;;;13.10;;
77449;SDS011;66536;53.150;18.172;2023-03-22T14:38:43;20.50;;;12.10;;
77449;SDS011;66536;53.150;18.172;2023-03-22T14:41:16;20.80;;;13.60;;
77449;SDS011;66536;53.150;18.172;2023-03-22T14:43:46;22.30;;;11.80;;
77449;SDS011;66536;53.150;18.172;2023-03-22T14:46:22;19.00;;;11.40;;
77449;SDS011;66536;53.150;18.172;2023-03-22T14:48:52;14.70;;;11.10;;
77449;SDS011;66536;53.150;18.172;2023-03-22T14:51:32;22.30;;;13.60;;
77449;SDS011;66536;53.150;18.172;2023-03-22T14:54:04;39.70;;;21.60;;
77449;SDS011;66536;53.150;18.172;2023-03-22T14:56:40;23.80;;;11.90;;
77449;SDS011;66536;53.150;18.172;2023-03-22T14:59:29;18.90;;;13.80;;
77449;SDS011;66536;53.150;18.172;2023-03-22T15:02:02;18.40;;;11.70;;
77449;SDS011;66536;53.150;18.172;2023-03-22T15:04:45;23.20;;;17.20;;
77449;SDS011;66536;53.150;18.172;2023-03-22T15:07:12;22.20;;;14.00;;
77449;SDS011;66536;53.150;18.172;2023-03-22T15:10:39;22.00;;;13.30;;
77449;SDS011;66536;53.150;18.172;2023-03-22T15:13:10;17.90;;;12.10;;
77449;SDS011;66536;53.150;18.172;2023-03-22T15:15:39;21.80;;;12.90;;
77449;SDS011;66536;53.150;18.172;2023-03-22T15:18:29;26.80;;;11.00;;
77449;SDS011;66536;53.150;18.172;2023-03-22T15:20:59;22.10;;;12.20;;
77449;SDS011;66536;53.150;18.172;2023-03-22T15:23:32;23.20;;;12.50;;
77449;SDS011;66536;53.150;18.172;2023-03-22T15:26:18;21.90;;;13.40;;
77449;SDS011;66536;53.150;18.172;2023-03-22T15:28:54;21.30;;;12.30;;
77449;SDS011;66536;53.150;18.172;2023-03-22T15:31:25;21.00;;;12.90;;
77449;SDS011;66536;53.150;18.172;2023-03-22T15:33:58;27.60;;;14.50;;
77449;SDS011;66536;53.150;18.172;2023-03-22T15:36:29;28.50;;;16.90;;
77449;SDS011;66536;53.150;18.172;2023-03-22T15:39:04;28.40;;;16.70;;
77449;SDS011;66536;53.150;18.172;2023-03-22T15:41:49;29.60;;;16.00;;
77449;SDS011;66536;53.150;18.172;2023-03-22T15:44:25;23.40;;;13.70;;
77449;SDS011;66536;53.150;18.172;2023-03-22T15:46:57;21.40;;;12.50;;
77449;SDS011;66536;53.150;18.172;2023-03-22T15:49:34;21.90;;;11.50;;
77449;SDS011;66536;53.150;18.172;2023-03-22T15:52:07;15.60;;;10.70;;
77449;SDS011;66536;53.150;18.172;2023-03-22T15:54:35;16.10;;;10.90;;
77449;SDS011;66536;53.150;18.172;2023-03-22T15:57:18;25.50;;;13.20;;
77449;SDS011;66536;53.150;18.172;2023-03-22T15:59:50;54.60;;;25.30;;
77449;SDS011;66536;53.150;18.172;2023-03-22T16:02:24;46.10;;;21.40;;
77449;SDS011;66536;53.150;18.172;2023-03-22T16:04:56;31.70;;;16.80;;
77449;SDS011;66536;53.150;18.172;2023-03-22T16:07:26;36.00;;;18.50;;
77449;SDS011;66536;53.150;18.172;2023-03-22T16:09:56;22.30;;;15.10;;
77449;SDS011;66536;53.150;18.172;2023-03-22T16:12:24;21.60;;;15.10;;
77449;SDS011;66536;53.150;18.172;2023-03-22T16:14:51;26.20;;;14.60;;
77449;SDS011;66536;53.150;18.172;2023-03-22T16:17:40;21.10;;;12.90;;
77449;SDS011;66536;53.150;18.172;2023-03-22T16:20:07;21.50;;;12.60;;
77449;SDS011;66536;53.150;18.172;2023-03-22T16:22:38;16.50;;;11.30;;
77449;SDS011;66536;53.150;18.172;2023-03-22T16:25:06;18.70;;;11.20;;
77449;SDS011;66536;53.150;18.172;2023-03-22T16:27:33;18.10;;;11.00;;
77449;SDS011;66536;53.150;18.172;2023-03-22T16:30:00;21.20;;;12.90;;
77449;SDS011;66536;53.150;18.172;2023-03-22T16:32:30;24.10;;;12.70;;
77449;SDS011;66536;53.150;18.172;2023-03-22T16:34:57;22.90;;;13.70;;
77449;SDS011;66536;53.150;18.172;2023-03-22T16:37:25;35.20;;;18.00;;
77449;SDS011;66536;53.150;18.172;2023-03-22T16:39:52;24.60;;;14.80;;
77449;SDS011;66536;53.150;18.172;2023-03-22T16:42:24;17.00;;;11.40;;
77449;SDS011;66536;53.150;18.172;2023-03-22T16:44:54;29.00;;;15.40;;
77449;SDS011;66536;53.150;18.172;2023-03-22T16:47:23;22.90;;;14.50;;
77449;SDS011;66536;53.150;18.172;2023-03-22T16:49:52;33.00;;;16.90;;
77449;SDS011;66536;53.150;18.172;2023-03-22T16:52:20;31.50;;;20.20;;
77449;SDS011;66536;53.150;18.172;2023-03-22T16:54:50;27.20;;;17.40;;
77449;SDS011;66536;53.150;18.172;2023-03-22T16:57:24;34.20;;;18.80;;
77449;SDS011;66536;53.150;18.172;2023-03-22T16:59:53;58.40;;;26.10;;
77449;SDS011;66536;53.150;18.172;2023-03-22T17:02:24;128.20;;;39.80;;
77449;SDS011;66536;53.150;18.172;2023-03-22T17:04:59;152.60;;;40.90;;
77449;SDS011;66536;53.150;18.172;2023-03-22T17:07:27;78.50;;;27.40;;
77449;SDS011;66536;53.150;18.172;2023-03-22T17:10:00;75.50;;;25.00;;
77449;SDS011;66536;53.150;18.172;2023-03-22T17:12:30;51.30;;;20.90;;
77449;SDS011;66536;53.150;18.172;2023-03-22T17:15:02;53.20;;;22.30;;
77449;SDS011;66536;53.150;18.172;2023-03-22T17:17:31;50.00;;;22.40;;
77449;SDS011;66536;53.150;18.172;2023-03-22T17:19:58;42.20;;;19.80;;
77449;SDS011;66536;53.150;18.172;2023-03-22T17:22:24;37.70;;;19.30;;
77449;SDS011;66536;53.150;18.172;2023-03-22T17:24:51;40.30;;;20.60;;
77449;SDS011;66536;53.150;18.172;2023-03-22T17:27:21;38.90;;;21.20;;
77449;SDS011;66536;53.150;18.172;2023-03-22T17:29:47;45.00;;;25.10;;